Startpagina
METAR-TAF:

METAR-TAF

Vliegvelden :

Honiara International Airport

Honiara, Guadalcanal, Salomonseilanden

breedte: 09-25S, lengte: 160-03E, hoogte: 8 m

Actueel weer

Dit bericht is 53 minuten geleden gemaakt, om 21:00 UTC
Wind 3 kt uit het oostnoordoosten
Temperatuur 25°C
Vochtigheid 89%
Druk 1010 hPa
Zicht 10 km of meer
Weinig wolken op 1600 ft
Heiigheid

METAR: AGGH 162100Z 07003KT 9999 HZ FEW016 25/23 Q1010

Tijdstip: 08:53 (21:53 UTC)

Verwachting

Dit bericht is 5 uur en het 8 minuten geleden gemaakt, om 16:45 UTC
Verwachting geldig van 16 om 18 UTC tot 17 om 18 UTC
Wind 6 kt uit het zuidzuidoosten
Zicht 10 km of meer
Weinig wolken op 1600 ft
Van 16 om 2300 UTC
Wind 15 kt uit het oostnoordoosten
Zicht: 1008 m
Verspreide wolken op 2000 ft

TAF: AGGH 161645Z 1618/1718 16006KT 9999 FEW016 FM162300 07015KT 9999 SCT020 T 22 26 31 32 Q 1008 1010 1010 1008

Waarnemingen en weersverwachtingen van meer dan 4000 vliegvelden (METAR en TAF).

De beschikbare stations zijn de gele en rode punten op de kaart.

Ga met uw muis naar het station om de naam te zien.

Klik dan om waarnemingen en weersverwachtingen te zien.

kaart wijzigen: klik op de groene knoppen met een zwart kruis om in te zoomen, op de groene knop met een streepje om uit te zoomen of op de groene pijlen voor aangrenzende kaarten.


METAR-TAF: